Time;durP1;ratioP1;P1;durP2;ratioP2;P2;SDS_P1;SDS_P2;PMS_P1;PMS_P2;Temp;Humidity;BMP_temperature;BMP_pressure;BME280_temperature;BME280_humidity;BME280_pressure;Samples;Min_cycle;Max_cycle;Signal;HPM_P1;HPM_P2
2022/08/03 00:01:55;;;;;;;1.75;1.10;;;23.10;78.40;;;;;;5035254;28;20036;-70
2022/08/03 00:04:20;;;;;;;1.52;1.10;;;23.10;78.70;;;;;;5035966;28;20033;-70
2022/08/03 00:06:46;;;;;;;2.40;1.40;;;23.10;78.70;;;;;;5035260;28;20045;-70
2022/08/03 00:09:12;;;;;;;2.65;1.23;;;23.10;79.40;;;;;;5035136;28;20025;-70
2022/08/03 00:11:38;;;;;;;1.48;1.30;;;23.10;79.10;;;;;;5035658;28;20032;-70
2022/08/03 00:14:05;;;;;;;1.70;1.33;;;23.10;79.20;;;;;;5035369;28;20073;-70
2022/08/03 00:16:30;;;;;;;1.20;1.00;;;23.10;79.20;;;;;;5035517;28;20053;-70
2022/08/03 00:18:56;;;;;;;2.58;1.20;;;23.00;79.40;;;;;;5033891;28;20103;-70
2022/08/03 00:21:22;;;;;;;2.28;1.27;;;23.00;79.60;;;;;;5035152;28;20025;-69
2022/08/03 00:23:48;;;;;;;1.65;1.45;;;23.00;79.60;;;;;;5035283;28;20026;-70
2022/08/03 00:26:13;;;;;;;1.42;1.30;;;23.00;79.90;;;;;;5035349;28;20035;-70
2022/08/03 00:28:39;;;;;;;1.08;0.98;;;23.00;80.10;;;;;;5035280;28;20057;-70
2022/08/03 00:31:05;;;;;;;2.30;1.20;;;23.00;80.10;;;;;;5034740;28;20454;-70
2022/08/03 00:33:31;;;;;;;1.48;1.20;;;23.00;80.00;;;;;;5035088;28;20044;-70
2022/08/03 00:35:57;;;;;;;2.22;1.42;;;23.00;80.10;;;;;;5034739;28;20061;-70
2022/08/03 00:38:23;;;;;;;1.70;1.30;;;23.00;80.40;;;;;;5035019;28;20049;-70
2022/08/03 00:40:48;;;;;;;1.88;1.38;;;22.90;80.30;;;;;;5034644;28;20017;-70
2022/08/03 00:43:14;;;;;;;1.40;1.27;;;22.90;80.30;;;;;;5035218;28;20025;-69
2022/08/03 00:45:41;;;;;;;1.63;1.30;;;22.90;80.70;;;;;;5035034;28;20442;-70
2022/08/03 00:48:08;;;;;;;1.40;1.15;;;22.80;80.90;;;;;;5034638;28;20045;-70
2022/08/03 00:50:39;;;;;;;1.88;1.35;;;22.80;81.00;;;;;;5034967;28;20033;-70
2022/08/03 00:53:08;;;;;;;1.93;1.37;;;22.80;81.20;;;;;;5034671;28;20481;-70
2022/08/03 00:55:35;;;;;;;1.73;1.30;;;22.80;81.50;;;;;;5034940;28;20501;-70
2022/08/03 00:58:05;;;;;;;2.45;1.30;;;22.80;81.70;;;;;;5034511;28;20092;-70
2022/08/03 01:00:32;;;;;;;2.22;1.50;;;22.70;81.70;;;;;;5034655;28;20459;-70
2022/08/03 01:02:58;;;;;;;1.20;1.00;;;22.70;82.00;;;;;;5034671;28;20548;-70
2022/08/03 01:05:24;;;;;;;1.98;1.27;;;22.70;82.40;;;;;;5034405;28;20109;-69
2022/08/03 01:08:04;;;;;;;1.50;1.33;;;22.70;82.30;;;;;;5034761;28;20021;-68
2022/08/03 01:10:45;;;;;;;2.00;1.35;;;22.70;82.10;;;;;;5033237;28;20022;-69
2022/08/03 01:13:11;;;;;;;4.15;1.40;;;22.70;82.60;;;;;;5034108;28;20033;-68
2022/08/03 01:15:58;;;;;;;1.27;1.15;;;22.60;82.50;;;;;;5034531;28;20029;-69
2022/08/03 01:18:30;;;;;;;1.17;1.08;;;22.60;82.50;;;;;;5034633;28;20026;-70
2022/08/03 01:20:58;;;;;;;1.90;1.38;;;22.60;83.10;;;;;;5034360;28;20043;-69
2022/08/03 01:23:48;;;;;;;1.20;1.10;;;22.50;83.10;;;;;;5034325;28;20147;-70
2022/08/03 01:26:22;;;;;;;1.60;1.30;;;22.50;83.20;;;;;;5033990;28;20039;-69
2022/08/03 01:29:12;;;;;;;2.08;1.27;;;22.50;83.30;;;;;;5034078;28;20390;-69
2022/08/03 01:31:52;;;;;;;1.17;1.08;;;22.50;83.30;;;;;;5034254;28;20037;-69
2022/08/03 01:34:19;;;;;;;3.20;1.20;;;22.40;83.20;;;;;;5034243;28;20035;-70
2022/08/03 01:36:52;;;;;;;2.38;1.45;;;22.40;83.50;;;;;;5033847;28;20539;-70
2022/08/03 01:39:20;;;;;;;1.67;1.23;;;22.30;83.40;;;;;;5033979;28;20025;-68
2022/08/03 01:42:00;;;;;;;2.53;1.40;;;22.40;83.70;;;;;;5034172;28;20124;-69
2022/08/03 01:44:29;;;;;;;1.48;1.23;;;22.30;83.90;;;;;;5034208;28;20037;-68
2022/08/03 01:46:58;;;;;;;1.55;1.40;;;22.30;84.10;;;;;;5033328;28;20021;-71
2022/08/03 01:49:25;;;;;;;1.27;1.15;;;22.30;84.00;;;;;;5033611;28;20033;-70
2022/08/03 01:51:52;;;;;;;1.90;1.55;;;22.30;84.00;;;;;;5034120;28;20025;-70
2022/08/03 01:54:19;;;;;;;2.35;1.45;;;22.30;84.00;;;;;;5031853;28;20102;-69
2022/08/03 01:56:46;;;;;;;4.88;1.25;;;22.20;84.50;;;;;;5015596;28;20034;-69
2022/08/03 01:59:15;;;;;;;3.60;1.60;;;22.20;85.50;;;;;;5013481;28;20030;-70
2022/08/03 02:01:43;;;;;;;1.10;1.00;;;22.10;85.00;;;;;;5013879;28;20026;-69
2022/08/03 02:04:10;;;;;;;4.75;1.27;;;22.10;84.60;;;;;;5025274;28;20021;-69
2022/08/03 02:06:38;;;;;;;1.27;1.17;;;22.20;84.30;;;;;;5033546;28;20109;-68
2022/08/03 02:09:05;;;;;;;1.10;1.00;;;22.20;84.50;;;;;;5033139;28;20057;-68
2022/08/03 02:11:33;;;;;;;1.75;1.50;;;22.10;84.00;;;;;;5033171;28;20486;-68
2022/08/03 02:14:01;;;;;;;1.30;1.20;;;22.10;84.10;;;;;;5032907;28;20048;-68
2022/08/03 02:16:29;;;;;;;1.67;1.20;;;22.00;84.10;;;;;;5033384;28;20087;-71
2022/08/03 02:18:56;;;;;;;1.17;1.08;;;22.00;84.80;;;;;;5033072;28;20026;-70
2022/08/03 02:21:22;;;;;;;1.52;1.17;;;22.00;85.00;;;;;;5032569;28;20489;-70
2022/08/03 02:23:48;;;;;;;1.42;1.20;;;21.90;85.20;;;;;;5033254;28;20029;-70
2022/08/03 02:26:16;;;;;;;1.20;1.10;;;21.90;85.40;;;;;;5033167;28;20079;-70
2022/08/03 02:28:48;;;;;;;1.20;1.10;;;21.90;85.60;;;;;;5032986;28;20466;-70
2022/08/03 02:31:17;;;;;;;1.10;1.00;;;21.80;85.80;;;;;;5032739;28;20030;-69
2022/08/03 02:33:56;;;;;;;1.25;1.10;;;21.80;85.70;;;;;;5032748;28;20034;-68
2022/08/03 02:36:26;;;;;;;1.02;0.85;;;21.70;86.10;;;;;;5032812;28;20496;-69
2022/08/03 02:38:55;;;;;;;1.35;1.13;;;21.70;86.40;;;;;;5031978;28;20030;-69
2022/08/03 02:41:30;;;;;;;1.85;1.40;;;21.70;86.40;;;;;;5032624;28;20409;-70
2022/08/03 02:43:59;;;;;;;1.42;1.20;;;21.70;86.50;;;;;;5032905;28;20041;-68
2022/08/03 02:46:31;;;;;;;2.30;1.20;;;21.60;86.50;;;;;;5032588;28;20045;-70
2022/08/03 02:49:00;;;;;;;2.17;1.20;;;21.60;86.70;;;;;;5031533;28;20429;-69
2022/08/03 02:51:29;;;;;;;1.38;1.27;;;21.60;86.50;;;;;;5032727;28;20029;-68
2022/08/03 02:53:56;;;;;;;1.40;1.30;;;21.60;86.90;;;;;;5032671;28;20117;-69
2022/08/03 02:56:24;;;;;;;1.75;1.60;;;21.60;86.80;;;;;;5032427;28;20037;-69
2022/08/03 02:58:52;;;;;;;1.55;1.33;;;21.50;87.80;;;;;;5032950;28;20025;-70
2022/08/03 03:01:23;;;;;;;2.58;1.40;;;21.50;88.10;;;;;;5032072;28;20029;-70
2022/08/03 03:03:50;;;;;;;2.20;1.70;;;21.40;88.60;;;;;;5032207;28;20421;-70
2022/08/03 03:06:18;;;;;;;1.65;1.20;;;21.40;88.40;;;;;;5032365;28;20104;-69
2022/08/03 03:08:45;;;;;;;1.73;1.10;;;21.40;88.60;;;;;;5032423;28;20053;-70
2022/08/03 03:11:12;;;;;;;1.45;1.15;;;21.40;88.70;;;;;;5031852;28;20398;-70
2022/08/03 03:13:40;;;;;;;1.63;1.25;;;21.40;88.40;;;;;;5032510;28;20053;-70
2022/08/03 03:16:07;;;;;;;1.75;1.48;;;21.40;88.90;;;;;;5031931;28;20041;-70
2022/08/03 03:18:53;;;;;;;1.15;1.05;;;21.30;89.00;;;;;;5032340;28;20026;-70
2022/08/03 03:21:21;;;;;;;1.60;1.50;;;21.30;89.80;;;;;;5032012;28;20458;-70
2022/08/03 03:23:47;;;;;;;1.58;1.45;;;21.30;89.90;;;;;;5032386;28;20120;-70
2022/08/03 03:26:14;;;;;;;1.10;1.00;;;21.30;90.30;;;;;;5031482;28;20029;-70
2022/08/03 03:28:40;;;;;;;1.35;1.23;;;21.20;90.20;;;;;;5031067;28;20087;-70
2022/08/03 03:31:07;;;;;;;1.30;1.15;;;21.20;90.30;;;;;;5031941;28;20033;-70
2022/08/03 03:33:37;;;;;;;1.63;1.20;;;21.20;90.40;;;;;;5032660;28;20061;-70
2022/08/03 03:36:05;;;;;;;2.08;1.35;;;21.20;90.30;;;;;;5035928;28;20112;-70
2022/08/03 03:38:31;;;;;;;2.90;1.48;;;21.20;90.20;;;;;;5036163;28;20029;-70
2022/08/03 03:40:57;;;;;;;1.45;1.35;;;21.20;90.30;;;;;;5036419;28;20049;-70
2022/08/03 03:43:23;;;;;;;3.03;1.50;;;21.20;90.40;;;;;;5035911;28;20033;-69
2022/08/03 03:45:51;;;;;;;2.67;1.55;;;21.20;90.70;;;;;;5036341;28;20026;-69
2022/08/03 03:48:18;;;;;;;1.77;1.38;;;21.20;90.90;;;;;;5032042;28;20069;-69
2022/08/03 03:50:44;;;;;;;1.83;1.58;;;21.20;90.70;;;;;;5036169;28;20026;-69
2022/08/03 03:53:11;;;;;;;1.48;1.38;;;21.20;90.80;;;;;;5035331;28;20091;-69
2022/08/03 03:55:37;;;;;;;2.22;1.40;;;21.20;90.80;;;;;;5035784;28;20036;-70
2022/08/03 03:58:03;;;;;;;2.42;1.92;;;21.20;91.00;;;;;;5035801;28;20117;-69
2022/08/03 04:00:29;;;;;;;2.47;1.70;;;21.20;90.80;;;;;;5035483;28;20030;-69
2022/08/03 04:02:55;;;;;;;3.40;1.70;;;21.20;91.00;;;;;;5035841;28;20037;-69
2022/08/03 04:11:16;;;;;;;2.08;1.30;;;21.10;91.50;;;;;;5035135;28;20029;-70
2022/08/03 04:13:55;;;;;;;1.90;1.60;;;21.10;91.60;;;;;;5034920;28;20049;-70
2022/08/03 04:16:26;;;;;;;2.00;1.58;;;21.10;91.80;;;;;;5034813;28;20026;-69
2022/08/03 04:18:54;;;;;;;;;;;21.10;92.00;;;;;;5035992;28;20037;-69
2022/08/03 04:21:22;;;;;;;2.85;1.55;;;21.10;91.80;;;;;;5034815;28;19987;-70
2022/08/03 04:23:51;;;;;;;1.67;1.42;;;21.10;91.90;;;;;;5034997;28;20040;-70
2022/08/03 04:26:21;;;;;;;2.15;1.73;;;21.20;91.60;;;;;;5034453;28;20025;-70
2022/08/03 04:28:50;;;;;;;1.65;1.45;;;21.20;91.60;;;;;;5034812;28;20478;-70
2022/08/03 04:31:19;;;;;;;3.72;1.80;;;21.30;91.70;;;;;;5034383;28;20022;-70
2022/08/03 04:33:45;;;;;;;1.70;1.25;;;21.40;91.40;;;;;;5034607;28;20059;-70
2022/08/03 04:36:15;;;;;;;3.72;2.03;;;21.40;91.20;;;;;;5034333;28;20048;-70
2022/08/03 04:38:54;;;;;;;3.10;1.92;;;21.60;91.40;;;;;;5035067;28;20040;-70
2022/08/03 04:41:23;;;;;;;1.70;1.30;;;21.70;90.90;;;;;;5034260;28;20488;-70
2022/08/03 04:43:51;;;;;;;1.98;1.55;;;21.90;90.70;;;;;;5034658;28;20033;-70
2022/08/03 04:46:19;;;;;;;1.50;1.30;;;22.00;90.30;;;;;;5033918;28;20025;-70
2022/08/03 04:48:45;;;;;;;2.38;1.70;;;22.10;90.00;;;;;;5034484;28;20107;-70
2022/08/03 04:51:12;;;;;;;3.15;2.00;;;22.20;89.70;;;;;;5034096;28;20053;-70
2022/08/03 04:53:37;;;;;;;2.22;1.65;;;22.40;89.30;;;;;;5034706;28;20029;-69
2022/08/03 04:56:04;;;;;;;6.15;2.10;;;22.50;88.80;;;;;;5034530;28;20055;-69
2022/08/03 04:58:30;;;;;;;2.90;1.98;;;22.60;87.80;;;;;;5034294;28;20359;-69
2022/08/03 05:00:56;;;;;;;1.92;1.73;;;22.80;87.00;;;;;;5034705;28;20031;-69
2022/08/03 05:03:21;;;;;;;2.65;1.70;;;22.90;85.80;;;;;;5034259;28;20045;-69
2022/08/03 05:05:47;;;;;;;4.93;1.90;;;23.10;85.30;;;;;;5034524;28;20028;-69
2022/08/03 05:08:12;;;;;;;3.05;2.00;;;23.30;83.50;;;;;;5034091;28;20053;-69
2022/08/03 05:10:39;;;;;;;4.10;2.08;;;23.50;83.40;;;;;;5034409;28;20056;-69
2022/08/03 05:13:04;;;;;;;4.15;2.00;;;23.70;82.90;;;;;;5034081;28;20469;-69
2022/08/03 05:15:30;;;;;;;4.63;2.40;;;23.90;81.20;;;;;;5034210;28;20078;-69
2022/08/03 05:17:55;;;;;;;5.10;1.95;;;24.20;80.10;;;;;;5034361;28;20052;-70
2022/08/03 05:20:21;;;;;;;5.53;2.13;;;24.40;79.40;;;;;;5033630;28;20060;-70
2022/08/03 05:22:47;;;;;;;2.05;1.60;;;24.60;77.80;;;;;;5034540;28;20029;-70
2022/08/03 05:25:12;;;;;;;2.72;1.77;;;24.80;76.10;;;;;;5033774;28;20026;-69
2022/08/03 05:27:38;;;;;;;6.93;2.15;;;25.00;74.60;;;;;;5033851;28;20471;-70
2022/08/03 05:30:04;;;;;;;3.40;2.03;;;25.30;73.30;;;;;;5034136;28;20033;-70
2022/08/03 05:32:30;;;;;;;5.25;2.13;;;25.50;73.50;;;;;;5033493;28;20275;-69
2022/08/03 05:34:55;;;;;;;1.98;1.70;;;25.70;70.90;;;;;;5034302;28;20034;-69
2022/08/03 05:37:21;;;;;;;2.50;1.63;;;25.90;69.90;;;;;;5034784;28;20029;-69
2022/08/03 05:39:46;;;;;;;2.45;1.48;;;26.10;69.50;;;;;;5034519;28;20397;-69
2022/08/03 05:42:14;;;;;;;2.00;1.40;;;26.40;67.40;;;;;;5033672;28;20034;-70
2022/08/03 05:44:40;;;;;;;2.90;1.80;;;26.80;66.60;;;;;;5024214;28;20033;-70
2022/08/03 05:47:06;;;;;;;3.60;1.38;;;27.10;65.70;;;;;;5013665;28;20073;-69
2022/08/03 05:49:32;;;;;;;1.73;1.40;;;27.50;64.40;;;;;;5013415;28;20239;-69
2022/08/03 05:51:58;;;;;;;4.82;1.52;;;27.90;63.90;;;;;;5013700;28;20021;-70
2022/08/03 05:54:23;;;;;;;5.90;1.70;;;28.30;61.20;;;;;;5013304;28;20116;-70
2022/08/03 05:56:49;;;;;;;2.30;1.42;;;28.80;59.80;;;;;;5013067;28;20026;-70
2022/08/03 05:59:14;;;;;;;1.50;1.30;;;29.30;58.20;;;;;;5016446;28;20049;-70
2022/08/03 06:01:40;;;;;;;2.10;1.52;;;30.20;55.90;;;;;;5033317;28;20033;-69
2022/08/03 06:04:06;;;;;;;2.42;1.58;;;31.00;54.30;;;;;;5033561;28;20497;-70
2022/08/03 06:06:31;;;;;;;1.67;1.20;;;31.90;51.00;;;;;;5033223;28;20035;-69
2022/08/03 06:08:57;;;;;;;1.55;1.40;;;32.80;49.10;;;;;;5033346;28;20025;-69
2022/08/03 06:11:23;;;;;;;2.40;1.20;;;33.60;47.00;;;;;;5032942;28;20124;-70
2022/08/03 06:13:49;;;;;;;1.90;1.50;;;34.20;46.30;;;;;;5033247;28;20037;-69
2022/08/03 06:16:15;;;;;;;2.05;1.50;;;34.90;44.10;;;;;;5032910;28;20037;-70
2022/08/03 06:18:40;;;;;;;2.13;1.10;;;35.30;43.10;;;;;;5032845;28;20022;-70
2022/08/03 06:21:06;;;;;;;3.78;1.35;;;35.50;42.20;;;;;;5032626;28;20432;-70
2022/08/03 06:23:32;;;;;;;3.50;1.52;;;35.80;41.80;;;;;;5032396;28;20037;-70
2022/08/03 06:25:58;;;;;;;2.55;1.55;;;35.90;41.70;;;;;;5032537;28;20032;-70
2022/08/03 06:28:23;;;;;;;2.20;1.33;;;36.10;41.80;;;;;;5032063;28;20462;-70
2022/08/03 06:30:49;;;;;;;3.30;1.80;;;36.00;41.30;;;;;;5032676;28;20091;-70
2022/08/03 06:33:15;;;;;;;3.25;1.45;;;35.90;41.50;;;;;;5032148;28;20033;-70
2022/08/03 06:35:41;;;;;;;2.63;1.80;;;35.70;41.90;;;;;;5032181;28;20052;-70
2022/08/03 06:38:07;;;;;;;3.25;1.50;;;35.50;42.60;;;;;;5032490;28;20113;-70
2022/08/03 06:40:38;;;;;;;3.95;2.17;;;35.20;42.50;;;;;;5032023;28;20021;-70
2022/08/03 06:43:05;;;;;;;1.80;1.55;;;34.90;43.70;;;;;;5032497;28;20037;-69
2022/08/03 06:45:32;;;;;;;2.55;2.10;;;34.70;43.60;;;;;;5031913;28;20382;-69
2022/08/03 06:48:07;;;;;;;3.60;1.70;;;34.40;44.70;;;;;;5032540;28;20151;-70
2022/08/03 06:50:34;;;;;;;3.35;2.42;;;34.70;44.70;;;;;;5032132;28;20029;-71
2022/08/03 06:53:00;;;;;;;2.72;1.90;;;34.90;43.50;;;;;;5032181;28;20037;-71
2022/08/03 06:55:26;;;;;;;1.98;1.77;;;34.90;44.30;;;;;;5031867;28;20026;-69
2022/08/03 06:57:52;;;;;;;4.72;1.50;;;35.20;42.80;;;;;;5032247;28;20108;-71
2022/08/03 07:00:18;;;;;;;2.83;1.33;;;35.40;42.50;;;;;;5031929;28;20018;-70
2022/08/03 07:02:44;;;;;;;2.60;1.63;;;35.60;42.90;;;;;;5032171;28;20087;-70
2022/08/03 07:05:10;;;;;;;2.17;1.52;;;35.80;41.50;;;;;;5032116;28;20063;-70
2022/08/03 07:07:36;;;;;;;1.27;1.05;;;35.70;41.70;;;;;;5031130;28;20033;-70
2022/08/03 07:10:04;;;;;;;1.80;1.33;;;36.30;41.80;;;;;;5031818;28;20037;-70
2022/08/03 07:12:30;;;;;;;1.30;1.20;;;37.30;40.10;;;;;;5031352;28;20041;-70
2022/08/03 07:14:57;;;;;;;1.40;1.30;;;37.60;38.70;;;;;;5031828;28;20429;-70
2022/08/03 07:17:22;;;;;;;1.10;0.90;;;38.00;39.10;;;;;;5031483;28;20025;-69
2022/08/03 07:19:48;;;;;;;2.10;1.15;;;39.00;37.50;;;;;;5032014;28;20026;-71
2022/08/03 07:22:14;;;;;;;1.00;0.88;;;39.80;37.60;;;;;;5031964;28;20112;-71
2022/08/03 07:24:40;;;;;;;2.72;1.08;;;40.40;34.80;;;;;;5031741;28;20462;-70
2022/08/03 07:27:07;;;;;;;1.55;1.10;;;41.00;33.90;;;;;;5032024;28;20025;-70
2022/08/03 07:29:34;;;;;;;1.35;1.00;;;41.50;33.60;;;;;;5031624;28;20030;-71
2022/08/03 07:32:00;;;;;;;1.20;1.10;;;42.10;31.60;;;;;;5031901;28;20057;-70
2022/08/03 07:34:25;;;;;;;1.08;0.80;;;42.50;31.70;;;;;;5031434;28;20067;-71
2022/08/03 07:36:51;;;;;;;0.93;0.90;;;43.00;31.70;;;;;;5032043;28;20530;-71
2022/08/03 07:39:17;;;;;;;1.40;0.85;;;43.30;31.30;;;;;;5030593;28;20084;-71
2022/08/03 07:41:42;;;;;;;1.05;1.00;;;43.60;30.80;;;;;;5031393;28;20057;-71
2022/08/03 07:44:08;;;;;;;3.72;0.98;;;43.80;30.30;;;;;;5031863;28;20052;-71
2022/08/03 07:46:34;;;;;;;0.90;0.80;;;44.00;30.20;;;;;;5027535;28;20026;-71
2022/08/03 07:49:00;;;;;;;1.17;0.75;;;44.40;30.00;;;;;;5031362;28;20099;-70
2022/08/03 07:51:25;;;;;;;3.40;1.15;;;44.50;29.20;;;;;;5031021;28;20029;-71
2022/08/03 07:53:51;;;;;;;3.13;1.00;;;44.70;28.90;;;;;;5031272;28;20120;-71
2022/08/03 07:56:16;;;;;;;4.57;1.13;;;45.00;29.30;;;;;;5031646;28;20107;-71
2022/08/03 07:58:42;;;;;;;0.80;0.80;;;45.00;28.90;;;;;;5030928;28;20591;-71
2022/08/03 08:01:08;;;;;;;2.28;1.00;;;45.00;28.40;;;;;;5031350;28;20030;-71
2022/08/03 08:03:33;;;;;;;1.25;1.05;;;45.10;28.40;;;;;;5030697;28;20040;-71
2022/08/03 08:05:59;;;;;;;0.98;0.90;;;45.10;28.60;;;;;;5030987;28;20021;-71
2022/08/03 08:08:25;;;;;;;1.10;1.00;;;45.40;28.40;;;;;;5030262;28;20095;-71
2022/08/03 08:10:50;;;;;;;0.93;0.90;;;45.70;28.00;;;;;;5031566;28;20401;-70
2022/08/03 08:13:16;;;;;;;0.88;0.88;;;45.80;27.70;;;;;;5031182;28;20073;-69
2022/08/03 08:15:42;;;;;;;1.45;0.90;;;46.00;28.00;;;;;;5031197;28;20030;-70
2022/08/03 08:18:07;;;;;;;1.10;0.70;;;46.00;27.50;;;;;;5013852;28;20029;-70
2022/08/03 08:20:36;;;;;;;0.82;0.80;;;46.00;27.40;;;;;;5032779;28;20032;-70
2022/08/03 08:23:03;;;;;;;1.25;0.90;;;46.10;27.40;;;;;;5034900;28;20045;-70
2022/08/03 08:25:30;;;;;;;3.88;1.00;;;46.20;27.50;;;;;;5034820;28;20056;-69
2022/08/03 08:27:57;;;;;;;2.03;0.88;;;46.30;27.10;;;;;;5035005;28;20408;-70
2022/08/03 08:30:23;;;;;;;0.80;0.75;;;46.00;27.70;;;;;;5034875;28;20027;-70
2022/08/03 08:32:49;;;;;;;0.82;0.82;;;45.90;27.60;;;;;;5035152;28;20065;-70
2022/08/03 08:35:16;;;;;;;0.90;0.80;;;45.90;26.80;;;;;;5034571;28;20105;-70
2022/08/03 08:37:42;;;;;;;1.33;1.00;;;45.80;27.00;;;;;;5034222;28;20040;-70
2022/08/03 08:40:09;;;;;;;1.30;0.73;;;45.80;27.20;;;;;;5034262;28;20108;-69
2022/08/03 08:42:37;;;;;;;0.80;0.80;;;45.90;27.10;;;;;;5034023;28;20173;-71
2022/08/03 08:45:08;;;;;;;1.33;0.95;;;46.00;27.40;;;;;;5034768;28;20068;-70
2022/08/03 08:47:37;;;;;;;1.35;0.80;;;45.70;27.20;;;;;;5033979;28;20425;-70
2022/08/03 08:50:06;;;;;;;1.73;1.15;;;45.60;27.00;;;;;;5034623;28;20029;-69
2022/08/03 08:52:33;;;;;;;0.93;0.82;;;45.50;27.90;;;;;;5034099;28;20480;-70
2022/08/03 08:55:05;;;;;;;1.60;0.80;;;44.90;27.80;;;;;;5034382;28;20025;-71
2022/08/03 08:57:36;;;;;;;1.13;1.00;;;43.90;28.00;;;;;;5033696;28;20022;-70
2022/08/03 09:00:06;;;;;;;0.90;0.82;;;42.40;28.10;;;;;;5034186;28;20036;-70
2022/08/03 09:02:31;;;;;;;1.20;0.95;;;41.00;28.60;;;;;;5033731;28;20032;-70
2022/08/03 09:04:57;;;;;;;1.02;0.93;;;40.60;29.10;;;;;;5034165;28;20030;-70
2022/08/03 09:07:23;;;;;;;3.53;1.10;;;40.10;29.90;;;;;;5034395;28;20037;-70
2022/08/03 09:09:49;;;;;;;0.82;0.82;;;39.30;30.20;;;;;;5033554;28;20030;-70
2022/08/03 09:12:14;;;;;;;2.00;1.25;;;38.90;30.50;;;;;;5034212;28;20493;-70
2022/08/03 09:14:40;;;;;;;1.85;0.80;;;38.20;30.80;;;;;;5032247;28;20437;-70
2022/08/03 09:17:07;;;;;;;0.80;0.80;;;37.70;30.80;;;;;;5034249;28;20497;-70
2022/08/03 09:19:34;;;;;;;0.82;0.82;;;37.40;31.10;;;;;;5033443;28;20025;-70
2022/08/03 09:22:16;;;;;;;0.77;0.70;;;37.10;32.10;;;;;;5033745;28;20095;-70
2022/08/03 09:24:55;;;;;;;1.10;1.00;;;36.80;31.80;;;;;;5033533;28;20044;-70
2022/08/03 09:27:21;;;;;;;1.13;1.02;;;36.50;31.90;;;;;;5033507;28;20550;-69
2022/08/03 09:29:52;;;;;;;1.33;1.10;;;36.30;32.60;;;;;;5033443;28;20049;-70
2022/08/03 09:32:24;;;;;;;1.95;1.20;;;36.10;33.10;;;;;;5032072;28;20095;-70
2022/08/03 09:34:51;;;;;;;1.15;1.05;;;35.80;33.30;;;;;;5032738;28;20658;-70
2022/08/03 09:37:19;;;;;;;0.80;0.80;;;35.60;32.50;;;;;;5033537;28;20079;-69
2022/08/03 09:39:46;;;;;;;1.23;0.90;;;35.40;32.50;;;;;;5032972;28;20061;-70
2022/08/03 09:42:13;;;;;;;1.17;1.08;;;35.30;33.80;;;;;;5033567;28;20034;-70
2022/08/03 09:44:50;;;;;;;1.10;1.00;;;35.20;33.70;;;;;;5032474;28;20488;-69
2022/08/03 09:47:30;;;;;;;0.65;0.65;;;35.10;33.40;;;;;;5031531;28;20120;-69
2022/08/03 09:50:07;;;;;;;0.85;0.85;;;34.90;33.60;;;;;;5032993;28;20033;-70
2022/08/03 09:52:38;;;;;;;1.23;1.00;;;34.90;34.30;;;;;;5032797;28;20351;-69
2022/08/03 09:55:09;;;;;;;1.33;0.95;;;34.70;33.50;;;;;;5033035;28;20065;-70
2022/08/03 09:57:35;;;;;;;1.20;1.10;;;34.70;34.10;;;;;;5029175;28;20026;-71
2022/08/03 10:00:13;;;;;;;1.45;0.88;;;34.70;34.10;;;;;;5033266;28;20112;-70
2022/08/03 10:02:41;;;;;;;4.38;0.93;;;34.60;33.70;;;;;;5032536;28;20029;-69
2022/08/03 10:05:08;;;;;;;2.10;0.82;;;34.40;33.90;;;;;;5033085;28;20030;-69
2022/08/03 10:07:49;;;;;;;2.63;0.90;;;34.40;34.20;;;;;;5032504;28;20036;-70
2022/08/03 10:10:16;;;;;;;0.63;0.63;;;34.40;33.50;;;;;;5031459;28;20095;-70
2022/08/03 10:12:43;;;;;;;0.90;0.73;;;34.40;33.90;;;;;;5032713;28;20112;-70
2022/08/03 10:15:09;;;;;;;1.85;1.02;;;34.20;31.70;;;;;;5033075;28;20080;-70
2022/08/03 10:17:38;;;;;;;0.98;0.93;;;34.10;32.40;;;;;;5032488;28;20084;-70
2022/08/03 10:20:05;;;;;;;0.80;0.80;;;34.10;32.80;;;;;;5032556;28;20029;-70
2022/08/03 10:22:36;;;;;;;1.10;0.90;;;34.00;31.90;;;;;;5032626;28;20113;-71
2022/08/03 10:25:03;;;;;;;;;;;34.00;33.60;;;;;;5033146;28;20462;-69
2022/08/03 10:27:36;;;;;;;0.90;0.90;;;34.10;33.80;;;;;;5032703;28;20007;-69
2022/08/03 10:30:05;;;;;;;1.77;0.70;;;34.00;33.40;;;;;;5014829;28;20030;-69
2022/08/03 10:32:37;;;;;;;1.35;1.02;;;34.00;33.60;;;;;;5032213;28;20117;-70
2022/08/03 10:35:13;;;;;;;1.15;0.93;;;34.00;34.10;;;;;;5032167;28;20022;-69
2022/08/03 10:37:43;;;;;;;0.80;0.80;;;34.00;33.90;;;;;;5032018;28;20037;-69
2022/08/03 10:40:14;;;;;;;1.33;1.02;;;34.00;34.10;;;;;;5032545;28;20036;-70
2022/08/03 10:42:43;;;;;;;1.23;0.90;;;34.00;34.00;;;;;;5031742;28;20346;-70
2022/08/03 10:45:16;;;;;;;1.23;1.05;;;34.10;34.40;;;;;;5032318;28;20033;-69
2022/08/03 10:47:43;;;;;;;1.08;0.95;;;34.00;34.30;;;;;;5031079;28;20120;-71
2022/08/03 10:50:10;;;;;;;1.50;1.02;;;34.10;35.10;;;;;;5032028;28;20025;-70
2022/08/03 10:52:56;;;;;;;2.05;0.95;;;34.00;34.70;;;;;;5031639;28;20056;-71
2022/08/03 10:58:45;;;;;;;1.45;1.02;;;33.90;34.20;;;;;;5009544;28;20029;-69
2022/08/03 11:01:12;;;;;;;0.95;0.70;;;33.80;35.10;;;;;;5010243;28;20045;-70
2022/08/03 11:03:52;;;;;;;1.15;1.05;;;33.80;34.70;;;;;;5020248;28;20050;-71
2022/08/03 11:06:20;;;;;;;0.80;0.73;;;33.90;35.20;;;;;;5032123;28;20025;-70
2022/08/03 11:08:48;;;;;;;0.70;0.70;;;33.70;31.20;;;;;;5031269;28;20117;-70
2022/08/03 11:11:16;;;;;;;0.70;0.70;;;33.60;30.90;;;;;;5032028;28;20439;-70
2022/08/03 11:14:03;;;;;;;1.90;1.10;;;33.60;31.50;;;;;;5031679;28;20040;-71
2022/08/03 11:16:37;;;;;;;1.63;0.88;;;33.60;32.30;;;;;;5032104;28;20037;-70
2022/08/03 11:19:05;;;;;;;1.95;0.90;;;33.60;33.10;;;;;;5031925;28;20470;-70
2022/08/03 11:21:49;;;;;;;0.88;0.82;;;33.60;32.60;;;;;;5031962;28;20348;-70
2022/08/03 11:24:39;;;;;;;0.88;0.88;;;33.40;33.40;;;;;;5031895;28;20033;-70
2022/08/03 11:27:21;;;;;;;1.00;0.88;;;33.40;33.00;;;;;;5031843;28;20076;-69
2022/08/03 11:30:04;;;;;;;1.00;0.90;;;33.30;33.10;;;;;;5031515;28;20532;-69
2022/08/03 11:32:36;;;;;;;1.42;1.10;;;33.30;33.40;;;;;;5032057;28;20477;-70
2022/08/03 11:35:08;;;;;;;1.00;0.90;;;33.20;33.20;;;;;;5031830;28;20120;-70
2022/08/03 11:37:35;;;;;;;1.23;0.77;;;33.20;33.30;;;;;;5031869;28;20381;-69
2022/08/03 11:40:01;;;;;;;1.00;0.90;;;33.10;33.30;;;;;;5031520;28;20112;-70
2022/08/03 11:42:27;;;;;;;1.23;0.90;;;33.20;34.10;;;;;;5031985;28;20025;-70
2022/08/03 11:44:59;;;;;;;1.02;0.90;;;33.30;33.20;;;;;;5031581;28;20518;-70
2022/08/03 11:47:28;;;;;;;0.88;0.85;;;33.40;32.80;;;;;;5030682;28;20100;-69
2022/08/03 11:49:57;;;;;;;0.80;0.80;;;33.40;32.70;;;;;;5031222;28;20057;-69
2022/08/03 11:52:24;;;;;;;0.80;0.70;;;33.40;32.80;;;;;;5031452;28;20029;-69
2022/08/03 11:54:54;;;;;;;1.05;0.80;;;33.40;32.90;;;;;;5031646;28;20080;-70
2022/08/03 11:57:30;;;;;;;1.30;1.20;;;33.50;33.50;;;;;;5035567;28;20105;-70
2022/08/03 11:59:55;;;;;;;3.20;0.90;;;33.50;32.20;;;;;;5035266;28;20029;-70
2022/08/03 12:02:21;;;;;;;1.00;0.90;;;33.40;32.00;;;;;;5035641;28;20026;-70
2022/08/03 12:04:50;;;;;;;0.80;0.80;;;33.40;31.60;;;;;;5034630;28;20037;-70
2022/08/03 12:07:16;;;;;;;0.80;0.80;;;33.40;31.90;;;;;;5035525;28;20025;-70
2022/08/03 12:09:43;;;;;;;2.45;0.90;;;33.20;31.60;;;;;;5033255;28;20033;-70
2022/08/03 12:12:09;;;;;;;0.93;0.93;;;33.30;31.70;;;;;;5034881;28;20025;-69
2022/08/03 12:14:34;;;;;;;1.60;1.10;;;33.40;32.50;;;;;;5034983;28;20025;-69
2022/08/03 12:17:00;;;;;;;1.27;0.90;;;33.30;31.90;;;;;;5034828;28;20021;-69
2022/08/03 12:19:26;;;;;;;0.82;0.80;;;33.20;31.50;;;;;;5035169;28;20179;-70
2022/08/03 12:21:52;;;;;;;1.08;0.70;;;33.20;31.80;;;;;;5034387;28;20033;-69
2022/08/03 12:24:17;;;;;;;0.73;0.73;;;33.10;32.40;;;;;;5034985;28;20061;-69
2022/08/03 12:26:48;;;;;;;1.23;1.00;;;33.10;31.80;;;;;;5034729;28;20032;-70
2022/08/03 12:29:19;;;;;;;3.15;1.10;;;32.90;32.00;;;;;;5035004;28;20017;-69
2022/08/03 12:31:45;;;;;;;0.95;0.80;;;32.80;31.90;;;;;;5034267;28;20049;-69
2022/08/03 12:34:11;;;;;;;0.77;0.77;;;32.80;32.20;;;;;;5034581;28;20485;-69
2022/08/03 12:36:37;;;;;;;1.08;0.98;;;32.70;32.40;;;;;;5034705;28;20025;-69
2022/08/03 12:39:08;;;;;;;1.88;0.98;;;32.70;31.90;;;;;;5034386;28;20029;-71
2022/08/03 12:41:35;;;;;;;1.10;1.00;;;32.50;31.80;;;;;;5034927;28;20029;-69
2022/08/03 12:44:03;;;;;;;0.70;0.70;;;32.50;32.10;;;;;;5034170;28;20508;-70
2022/08/03 12:46:33;;;;;;;1.27;1.00;;;32.40;32.00;;;;;;5034940;28;20029;-70
2022/08/03 12:49:09;;;;;;;1.40;1.10;;;32.30;32.00;;;;;;5033914;28;20050;-69
2022/08/03 12:51:59;;;;;;;0.80;0.80;;;32.20;32.30;;;;;;5034454;28;20025;-69
2022/08/03 12:54:27;;;;;;;0.50;0.50;;;32.10;32.00;;;;;;5034362;28;20029;-70
2022/08/03 12:56:56;;;;;;;1.00;0.90;;;32.00;32.50;;;;;;5033772;28;20029;-70
2022/08/03 12:59:29;;;;;;;0.85;0.82;;;32.00;32.70;;;;;;5034350;28;20489;-70
2022/08/03 13:01:55;;;;;;;1.67;0.75;;;32.00;32.60;;;;;;5033684;28;20037;-70
2022/08/03 13:04:35;;;;;;;0.88;0.88;;;31.90;32.40;;;;;;5034160;28;20443;-70